Time;durP1;ratioP1;P1;durP2;ratioP2;P2;SDS_P1;SDS_P2;PMS_P1;PMS_P2;Temp;Humidity;BMP_temperature;BMP_pressure;BME280_temperature;BME280_humidity;BME280_pressure;Samples;Min_cycle;Max_cycle;Signal;HPM_P1;HPM_P2
2024/01/08 00:00:16;;;;;;;;;;;;;;;25.31;39.77;93911.13;5033220;28;7252;-41
2024/01/08 00:03:07;;;;;;;;;;;;;;;25.32;39.89;93912.59;5024740;28;8998;-41
2024/01/08 00:06:02;;;;;;;;;;;;;;;25.34;39.31;93912.81;5017169;28;8749;-41
2024/01/08 00:08:32;;;;;;;;;;;;;;;25.32;39.11;93909.84;4937879;28;9118;-40
2024/01/08 00:11:00;;;;;;;;;;;;;;;25.32;39.18;93915.34;4941927;28;8742;-41
2024/01/08 00:13:36;;;;;;;;;;;;;;;25.31;39.79;93911.13;4954046;28;7707;-40
2024/01/08 00:16:12;;;;;;;;;;;;;;;25.32;39.18;93912.59;4938244;28;7198;-40
2024/01/08 00:18:40;;;;;;;;;;;;;;;25.31;39.04;93916.63;4949251;28;7679;-40
2024/01/08 00:21:16;;;;;;;;;;;;;;;25.30;39.84;93915.88;4937402;28;9075;-42
2024/01/08 00:23:52;;;;;;;;;;;;;;;25.34;39.50;93916.34;4939630;28;7331;-40
2024/01/08 00:26:18;;;;;;;;;;;;;;;25.32;39.03;93907.09;4949615;28;7150;-40
2024/01/08 00:29:15;;;;;;;;;;;;;;;25.32;38.85;93918.13;4935070;28;7444;-38
2024/01/08 00:32:09;;;;;;;;;;;;;;;25.33;39.36;93914.09;4881458;29;9179;-38
2024/01/08 00:35:13;;;;;;;;;;;;;;;25.35;38.87;93911.56;4880923;29;7623;-38
2024/01/08 00:37:59;;;;;;;;;;;;;;;25.32;39.51;93918.88;4822585;29;8340;-37
2024/01/08 00:40:25;;;;;;;;;;;;;;;25.31;38.85;93911.13;4813837;29;7565;-37
2024/01/08 00:42:53;;;;;;;;;;;;;;;25.32;39.44;93920.88;4818474;29;7233;-38
2024/01/08 00:45:29;;;;;;;;;;;;;;;25.32;39.48;93924.38;4846971;29;8429;-38
2024/01/08 00:48:06;;;;;;;;;;;;;;;25.31;39.58;93911.88;4883678;29;7236;-38
2024/01/08 00:50:52;;;;;;;;;;;;;;;25.33;38.72;93925.13;4889970;29;8900;-38
2024/01/08 00:53:20;;;;;;;;;;;;;;;25.31;38.82;93917.38;4886003;29;8767;-38
2024/01/08 00:55:56;;;;;;;;;;;;;;;25.32;39.01;93923.63;4889737;29;7269;-38
2024/01/08 00:58:22;;;;;;;;;;;;;;;25.29;39.26;93925.41;4870576;29;9031;-38
2024/01/08 01:00:48;;;;;;;;;;;;;;;25.26;39.65;93917.44;4877816;29;9113;-37
2024/01/08 01:03:25;;;;;;;;;;;;;;;25.27;39.26;93922.44;4886164;29;9184;-38
2024/01/08 01:05:59;;;;;;;;;;;;;;;25.30;38.83;93920.66;4889600;29;9089;-37
2024/01/08 01:08:26;;;;;;;;;;;;;;;25.33;39.63;93923.13;4966117;28;7257;-38
2024/01/08 01:11:06;;;;;;;;;;;;;;;25.32;39.73;93923.63;5013417;28;8392;-38
2024/01/08 01:13:32;;;;;;;;;;;;;;;25.33;39.13;93925.88;5015935;28;7084;-38
2024/01/08 01:16:29;;;;;;;;;;;;;;;25.36;39.57;93935.06;5012353;28;9141;-38
2024/01/08 01:19:15;;;;;;;;;;;;;;;25.31;38.62;93925.66;4933400;29;9442;-38
2024/01/08 01:21:43;;;;;;;;;;;;;;;25.34;38.77;93929.34;4953804;29;7257;-38
2024/01/08 01:24:46;;;;;;;;;;;;;;;25.37;38.88;93928.31;4957705;28;9140;-38
2024/01/08 01:27:13;;;;;;;;;;;;;;;25.38;38.74;93932.56;4958885;28;10383;-38
2024/01/08 01:29:40;;;;;;;;;;;;;;;25.41;39.47;93934.28;4953437;29;9066;-38
2024/01/08 01:32:07;;;;;;;;;;;;;;;25.46;39.01;93935.50;4937882;29;7502;-38
2024/01/08 01:34:34;;;;;;;;;;;;;;;25.43;38.57;93934.53;4949203;29;7235;-38
2024/01/08 01:37:01;;;;;;;;;;;;;;;25.44;38.85;93930.50;4953601;29;9222;-38
2024/01/08 01:39:29;;;;;;;;;;;;;;;25.46;39.51;93941.75;4936525;28;7274;-48
2024/01/08 01:42:05;;;;;;;;;;;;;;;25.44;38.89;93944.28;4952172;28;9472;-47
2024/01/08 01:44:32;;;;;;;;;;;;;;;25.43;38.46;93940.78;4952615;29;7485;-51
2024/01/08 01:46:59;;;;;;;;;;;;;;;25.46;39.26;93939.00;4953033;29;7263;-49
2024/01/08 01:49:35;;;;;;;;;;;;;;;25.47;38.42;93934.97;4952008;28;7300;-53
2024/01/08 01:52:16;;;;;;;;;;;;;;;25.48;38.80;93930.97;4936103;29;7062;-52
2024/01/08 01:54:43;;;;;;;;;;;;;;;25.49;38.36;93934.47;4964155;28;7474;-52
2024/01/08 01:57:17;;;;;;;;;;;;;;;25.49;38.33;93929.69;5010425;28;7261;-47
2024/01/08 02:00:05;;;;;;;;;;;;;;;25.49;39.23;93937.22;5015114;28;7062;-49
2024/01/08 02:02:32;;;;;;;;;;;;;;;25.50;38.37;93933.19;5014900;28;6996;-49
2024/01/08 02:05:02;;;;;;;;;;;;;;;25.49;38.68;93935.19;5031800;28;9907;-47
2024/01/08 02:07:29;;;;;;;;;;;;;;;25.50;38.21;93928.44;5024649;28;9156;-48
2024/01/08 02:10:30;;;;;;;;;;;;;;;25.54;38.96;93933.63;5016479;28;9323;-51
2024/01/08 02:13:03;;;;;;;;;;;;;;;25.50;38.87;93927.66;5024834;28;8223;-49
2024/01/08 02:15:35;;;;;;;;;;;;;;;25.51;38.89;93932.69;5024789;28;9214;-50
2024/01/08 02:18:01;;;;;;;;;;;;;;;25.51;38.72;93929.94;5013809;28;7156;-49
2024/01/08 02:20:32;;;;;;;;;;;;;;;25.52;38.18;93936.16;5031603;28;8814;-51
2024/01/08 02:23:03;;;;;;;;;;;;;;;25.52;38.76;93933.41;5023595;28;9242;-47
2024/01/08 02:25:31;;;;;;;;;;;;;;;25.49;38.59;93929.69;5026817;28;7259;-50
2024/01/08 02:27:59;;;;;;;;;;;;;;;25.49;38.45;93932.44;5034563;28;9106;-49
2024/01/08 02:30:28;;;;;;;;;;;;;;;25.44;38.81;93927.75;5020079;28;9251;-48
2024/01/08 02:33:03;;;;;;;;;;;;;;;25.49;38.40;93937.22;5019491;28;9022;-51
2024/01/08 02:35:30;;;;;;;;;;;;;;;25.50;38.18;93933.94;5025945;28;7062;-49
2024/01/08 02:37:58;;;;;;;;;;;;;;;25.51;38.00;93935.44;5014079;28;7253;-51
2024/01/08 02:40:28;;;;;;;;;;;;;;;25.51;38.18;93927.16;5014801;28;7050;-50
2024/01/08 02:42:56;;;;;;;;;;;;;;;25.52;38.79;93934.16;5027743;28;7406;-47
2024/01/08 02:45:24;;;;;;;;;;;;;;;25.51;38.12;93929.94;5031532;28;7311;-48
2024/01/08 02:47:53;;;;;;;;;;;;;;;25.54;38.96;93930.88;5025856;28;8641;-47
2024/01/08 02:50:22;;;;;;;;;;;;;;;25.52;38.41;93928.66;5025114;28;9255;-37
2024/01/08 02:52:48;;;;;;;;;;;;;;;25.52;38.77;93934.16;5021845;28;7266;-37
2024/01/08 02:55:16;;;;;;;;;;;;;;;25.50;38.65;93933.94;5016729;28;7755;-37
2024/01/08 02:57:41;;;;;;;;;;;;;;;25.49;38.39;93940.69;5014325;28;9216;-37
2024/01/08 03:00:10;;;;;;;;;;;;;;;25.52;37.95;93942.41;5032100;28;7247;-37
2024/01/08 03:02:38;;;;;;;;;;;;;;;25.51;38.70;93949.19;5017267;28;7211;-37
2024/01/08 03:05:06;;;;;;;;;;;;;;;25.50;38.29;93944.94;5017835;28;8714;-37
2024/01/08 03:07:42;;;;;;;;;;;;;;;25.49;38.15;93937.94;5003663;28;7232;-37
2024/01/08 03:10:08;;;;;;;;;;;;;;;25.50;38.50;93944.94;5034315;28;9361;-37
2024/01/08 03:12:35;;;;;;;;;;;;;;;25.52;38.84;93936.16;5035573;28;7241;-37
2024/01/08 03:15:01;;;;;;;;;;;;;;;25.53;38.20;93946.66;5017146;28;9805;-37
2024/01/08 03:17:27;;;;;;;;;;;;;;;25.52;38.04;93947.91;5017159;28;8867;-37
2024/01/08 03:19:55;;;;;;;;;;;;;;;25.47;37.82;93940.47;5007506;28;9119;-37
2024/01/08 03:22:23;;;;;;;;;;;;;;;25.51;38.62;93949.19;5016390;28;9116;-37
2024/01/08 03:24:52;;;;;;;;;;;;;;;25.51;38.59;93956.72;5017604;28;9336;-37
2024/01/08 03:27:25;;;;;;;;;;;;;;;25.52;38.01;93956.19;5017384;28;9568;-37
2024/01/08 03:30:38;;;;;;;;;;;;;;;25.52;38.67;93958.94;5035677;28;9766;-37
2024/01/08 03:33:08;;;;;;;;;;;;;;;25.51;37.96;93953.97;5034941;28;7219;-37
2024/01/08 03:35:43;;;;;;;;;;;;;;;25.52;37.93;93958.94;5026718;28;7025;-37
2024/01/08 03:38:47;;;;;;;;;;;;;;;25.51;38.22;93965.72;5024523;28;7315;-37
2024/01/08 03:41:34;;;;;;;;;;;;;;;25.53;38.20;93968.69;4924920;28;9233;-37
2024/01/08 03:44:00;;;;;;;;;;;;;;;25.49;38.54;93962.72;4948233;28;9117;-37
2024/01/08 03:46:26;;;;;;;;;;;;;;;25.54;37.76;93974.94;4949633;28;8380;-37
2024/01/08 03:48:52;;;;;;;;;;;;;;;25.49;37.89;93965.47;4942229;28;7219;-37
2024/01/08 03:51:24;;;;;;;;;;;;;;;25.51;38.22;93962.97;4934745;28;7149;-37
2024/01/08 03:53:50;;;;;;;;;;;;;;;25.51;38.24;93965.72;4947789;28;7292;-37
2024/01/08 03:56:16;;;;;;;;;;;;;;;25.51;38.21;93979.50;4935242;28;9075;-37
2024/01/08 03:58:42;;;;;;;;;;;;;;;25.48;37.83;93972.25;4943694;28;6975;-37
2024/01/08 04:01:08;;;;;;;;;;;;;;;25.50;37.56;93969.72;4932500;28;9186;-37
2024/01/08 04:03:34;;;;;;;;;;;;;;;25.51;38.39;93975.97;4945572;28;7267;-37
2024/01/08 04:06:00;;;;;;;;;;;;;;;25.50;38.08;93968.97;4927788;28;7307;-37
2024/01/08 04:08:26;;;;;;;;;;;;;;;25.48;37.70;93972.25;4914710;28;9053;-40
2024/01/08 04:10:52;;;;;;;;;;;;;;;25.49;38.23;93984.75;4943160;28;9096;-40
2024/01/08 04:13:18;;;;;;;;;;;;;;;25.49;38.07;93986.78;5011135;28;9133;-40
2024/01/08 04:15:44;;;;;;;;;;;;;;;25.50;38.02;93983.50;5022998;28;7150;-40
2024/01/08 04:18:10;;;;;;;;;;;;;;;25.47;38.32;93979.03;5027340;28;7215;-36
2024/01/08 04:20:36;;;;;;;;;;;;;;;25.50;37.94;93986.25;5009515;28;9081;-37
2024/01/08 04:23:02;;;;;;;;;;;;;;;25.52;38.03;93985.72;5012972;28;7943;-37
2024/01/08 04:25:28;;;;;;;;;;;;;;;25.51;37.39;93979.50;5006556;28;9429;-37
2024/01/08 04:27:55;;;;;;;;;;;;;;;25.50;38.10;93983.50;5013951;28;7038;-37
2024/01/08 04:30:32;;;;;;;;;;;;;;;25.49;37.48;93984.75;5016198;28;9140;-37
2024/01/08 04:32:58;;;;;;;;;;;;;;;25.52;37.96;93980.22;5012865;28;9590;-37
2024/01/08 04:35:41;;;;;;;;;;;;;;;25.51;38.08;93985.00;5014155;28;7058;-37
2024/01/08 04:38:07;;;;;;;;;;;;;;;25.48;37.73;93979.78;5029142;28;7233;-37
2024/01/08 04:40:34;;;;;;;;;;;;;;;25.51;37.83;93984.25;5008389;28;9067;-37
2024/01/08 04:43:00;;;;;;;;;;;;;;;25.52;37.33;93989.22;5006464;28;8828;-37
2024/01/08 04:45:25;;;;;;;;;;;;;;;25.51;37.81;93987.75;5012876;28;9212;-37
2024/01/08 04:48:03;;;;;;;;;;;;;;;25.54;37.73;93988.69;5012966;28;9182;-37
2024/01/08 04:50:45;;;;;;;;;;;;;;;25.50;37.47;93982.75;5016172;28;8762;-37
2024/01/08 04:53:12;;;;;;;;;;;;;;;25.51;37.21;93979.50;5005541;28;7162;-37
2024/01/08 04:55:39;;;;;;;;;;;;;;;25.49;38.14;93987.50;5017250;28;7290;-37
2024/01/08 04:58:08;;;;;;;;;;;;;;;25.51;37.16;93995.25;5016292;28;9261;-37
2024/01/08 05:00:44;;;;;;;;;;;;;;;25.51;37.72;93996.00;5034404;28;7434;-37
2024/01/08 05:03:29;;;;;;;;;;;;;;;25.50;37.37;93994.50;5016666;28;7371;-37
2024/01/08 05:05:56;;;;;;;;;;;;;;;25.49;37.07;93998.50;5013182;28;7245;-37
2024/01/08 05:08:41;;;;;;;;;;;;;;;25.47;38.07;93992.78;4999085;28;7352;-37
2024/01/08 05:11:28;;;;;;;;;;;;;;;25.48;37.57;94002.53;5016054;28;8978;-37
2024/01/08 05:14:03;;;;;;;;;;;;;;;25.47;37.23;94001.03;5015852;28;9514;-37
2024/01/08 05:16:49;;;;;;;;;;;;;;;25.49;37.27;94012.28;5023571;28;9092;-37
2024/01/08 05:19:48;;;;;;;;;;;;;;;25.49;37.06;94009.53;5000339;28;9553;-37
2024/01/08 05:22:16;;;;;;;;;;;;;;;25.48;37.18;94019.06;4901926;29;8392;-37
2024/01/08 05:24:42;;;;;;;;;;;;;;;25.49;37.07;94020.53;4907329;29;7002;-37
2024/01/08 05:27:08;;;;;;;;;;;;;;;25.49;37.32;94008.81;4883105;29;6956;-37
2024/01/08 05:29:47;;;;;;;;;;;;;;;25.50;37.57;94011.03;4906053;29;7059;-59
2024/01/08 05:32:13;;;;;;;;;;;;;;;25.51;37.02;94020.78;4903782;29;7606;-59
2024/01/08 05:34:51;;;;;;;;;;;;;;;25.49;37.06;94015.03;4894684;29;6977;-60
2024/01/08 05:37:17;;;;;;;;;;;;;;;25.48;37.33;94010.06;4912714;29;7362;-60
2024/01/08 05:39:57;;;;;;;;;;;;;;;25.49;37.87;94014.31;4909809;29;9425;-59
2024/01/08 05:42:22;;;;;;;;;;;;;;;25.47;37.09;94017.56;4912241;29;9611;-59
2024/01/08 05:45:07;;;;;;;;;;;;;;;25.43;37.10;94008.84;4894520;29;8149;-60
2024/01/08 05:47:36;;;;;;;;;;;;;;;25.43;37.44;94023.38;4914139;29;7703;-60
2024/01/08 05:50:05;;;;;;;;;;;;;;;25.46;37.09;94026.34;4890623;29;8758;-59
2024/01/08 05:52:44;;;;;;;;;;;;;;;25.47;37.60;94025.09;4897590;29;9395;-60
2024/01/08 05:55:24;;;;;;;;;;;;;;;25.45;37.79;94024.88;4907555;29;7315;-59
2024/01/08 05:58:10;;;;;;;;;;;;;;;25.44;37.79;94018.63;4956260;28;7403;-59
2024/01/08 06:00:38;;;;;;;;;;;;;;;25.46;37.88;94034.63;5024838;28;7275;-59
2024/01/08 06:03:04;;;;;;;;;;;;;;;25.43;37.26;94028.88;5035169;28;8087;-59
2024/01/08 06:05:30;;;;;;;;;;;;;;;25.45;37.90;94036.63;5030536;28;7314;-59
2024/01/08 06:08:04;;;;;;;;;;;;;;;25.46;37.02;94040.88;5013246;28;8866;-58
2024/01/08 06:10:32;;;;;;;;;;;;;;;25.42;37.10;94034.91;5025576;28;7250;-59
2024/01/08 06:13:27;;;;;;;;;;;;;;;25.41;37.00;94041.66;5021077;28;8660;-59
2024/01/08 06:15:55;;;;;;;;;;;;;;;25.42;37.43;94038.41;4918106;29;9365;-59
2024/01/08 06:18:35;;;;;;;;;;;;;;;25.39;37.13;94033.16;4925792;29;8762;-59
2024/01/08 06:21:13;;;;;;;;;;;;;;;25.41;36.65;94047.91;4937134;29;7050;-59
2024/01/08 06:23:46;;;;;;;;;;;;;;;25.42;37.10;94040.41;4933748;29;8612;-59
2024/01/08 06:26:23;;;;;;;;;;;;;;;25.42;36.83;94048.69;4919199;29;6967;-59
2024/01/08 06:29:00;;;;;;;;;;;;;;;25.37;37.78;94044.69;4922683;29;7248;-59
2024/01/08 06:31:36;;;;;;;;;;;;;;;25.42;37.19;94046.66;4934345;29;7070;-58
2024/01/08 06:34:36;;;;;;;;;;;;;;;25.44;36.86;94046.16;4936971;29;7327;-59
2024/01/08 06:37:12;;;;;;;;;;;;;;;25.39;37.83;94035.91;4935205;29;7567;-59
2024/01/08 06:40:14;;;;;;;;;;;;;;;25.39;37.81;94049.69;4933479;29;9380;-37
2024/01/08 06:42:50;;;;;;;;;;;;;;;25.38;37.30;94048.94;4917937;29;9520;-37
2024/01/08 06:45:26;;;;;;;;;;;;;;;25.40;37.40;94051.19;4918271;29;7300;-37
2024/01/08 06:47:54;;;;;;;;;;;;;;;25.39;37.77;94044.91;4918389;29;7124;-37
2024/01/08 06:50:34;;;;;;;;;;;;;;;25.38;37.49;94037.91;4903903;29;7240;-41
2024/01/08 06:53:00;;;;;;;;;;;;;;;25.41;37.42;94047.16;4965660;28;6993;-40
2024/01/08 06:55:45;;;;;;;;;;;;;;;25.41;37.23;94049.91;4995056;28;9453;-40
2024/01/08 06:58:21;;;;;;;;;;;;;;;25.40;37.49;94046.41;4974351;28;9418;-41
2024/01/08 07:01:11;;;;;;;;;;;;;;;25.40;37.72;94045.69;4975580;28;7977;-40
2024/01/08 07:03:39;;;;;;;;;;;;;;;25.40;37.75;94046.41;4991923;28;8735;-41
2024/01/08 07:06:06;;;;;;;;;;;;;;;25.40;37.96;94056.69;4994355;28;9094;-40
2024/01/08 07:08:50;;;;;;;;;;;;;;;25.39;37.24;94052.44;4978037;28;9154;-40
2024/01/08 07:11:24;;;;;;;;;;;;;;;25.34;37.78;94048.47;4978587;28;7187;-40
2024/01/08 07:13:52;;;;;;;;;;;;;;;25.22;34.64;94052.63;4991367;28;9241;-41
2024/01/08 07:16:43;;;;;;;;;;;;;;;25.01;31.30;94068.06;5008739;28;9092;-41
2024/01/08 07:19:11;;;;;;;;;;;;;;;24.82;29.08;94055.50;5015249;28;9279;-43
2024/01/08 07:21:39;;;;;;;;;;;;;;;24.77;29.01;94057.06;5035872;28;7536;-43
2024/01/08 07:24:22;;;;;;;;;;;;;;;24.77;28.36;94061.81;5033472;28;9384;-40
2024/01/08 07:27:26;;;;;;;;;;;;;;;24.82;28.39;94061.00;5034303;28;9599;-40
2024/01/08 07:29:56;;;;;;;;;;;;;;;24.86;29.35;94066.97;4954048;28;9117;-40
2024/01/08 07:32:54;;;;;;;;;;;;;;;24.95;29.84;94072.13;4936162;29;7012;-40
2024/01/08 07:35:20;;;;;;;;;;;;;;;24.98;30.08;94071.13;4924832;29;9214;-40
2024/01/08 07:37:54;;;;;;;;;;;;;;;25.02;28.43;94071.56;4932310;28;9040;-40
2024/01/08 07:40:47;;;;;;;;;;;;;;;25.06;29.27;94072.03;4934158;29;9364;-40
2024/01/08 07:43:25;;;;;;;;;;;;;;;25.05;30.19;94071.31;4917106;29;7069;-40
2024/01/08 07:46:07;;;;;;;;;;;;;;;25.08;28.93;94075.00;4930565;29;7082;-40
2024/01/08 07:49:00;;;;;;;;;;;;;;;25.04;29.78;94082.81;4936161;29;7441;-41
2024/01/08 07:51:39;;;;;;;;;;;;;;;24.96;30.06;94068.13;4919486;29;7616;-41
2024/01/08 07:54:11;;;;;;;;;;;;;;;24.96;29.71;94079.88;4919296;29;7352;-43
2024/01/08 07:56:37;;;;;;;;;;;;;;;25.00;30.67;94088.59;4936036;29;7622;-40
2024/01/08 07:59:41;;;;;;;;;;;;;;;25.02;30.37;94086.09;4929297;29;7157;-40
2024/01/08 08:02:10;;;;;;;;;;;;;;;25.02;30.57;94088.84;4890194;29;9277;-42
2024/01/08 08:04:36;;;;;;;;;;;;;;;25.01;30.62;94095.59;4938642;28;9242;-41
2024/01/08 08:07:02;;;;;;;;;;;;;;;25.03;30.63;94089.59;4951134;28;7439;-40
2024/01/08 08:09:34;;;;;;;;;;;;;;;25.02;31.03;94088.09;4928289;29;8679;-37
2024/01/08 08:12:19;;;;;;;;;;;;;;;25.06;30.60;94099.53;4974495;28;7324;-37
2024/01/08 08:14:49;;;;;;;;;;;;;;;25.06;32.17;94097.53;4973451;28;7494;-37
2024/01/08 08:17:17;;;;;;;;;;;;;;;25.09;31.67;94104.78;4957834;28;7063;-37
2024/01/08 08:19:45;;;;;;;;;;;;;;;25.09;32.08;94099.28;4974489;28;9079;-37
2024/01/08 08:22:11;;;;;;;;;;;;;;;25.07;31.14;94099.06;4982668;28;7054;-37
2024/01/08 08:24:44;;;;;;;;;;;;;;;25.10;32.47;94106.25;4968565;28;7160;-37
2024/01/08 08:27:13;;;;;;;;;;;;;;;25.08;32.12;94092.28;4957038;28;9733;-37
2024/01/08 08:29:44;;;;;;;;;;;;;;;25.09;31.96;94099.28;4978152;28;7326;-37
2024/01/08 08:32:12;;;;;;;;;;;;;;;25.10;32.01;94102.78;4994176;28;7867;-37
2024/01/08 08:34:40;;;;;;;;;;;;;;;25.09;32.22;94106.78;5031316;28;7224;-37
2024/01/08 08:37:10;;;;;;;;;;;;;;;25.08;31.66;94105.28;5014515;28;7279;-37
2024/01/08 08:39:40;;;;;;;;;;;;;;;25.08;32.96;94108.03;5016432;28;9470;-37
2024/01/08 08:42:42;;;;;;;;;;;;;;;25.12;32.56;94114.75;5034487;28;9403;-37
2024/01/08 08:45:09;;;;;;;;;;;;;;;25.14;32.52;94109.47;4953747;28;8980;-37
2024/01/08 08:48:09;;;;;;;;;;;;;;;25.17;32.42;94115.97;4954029;28;7005;-37
2024/01/08 08:51:05;;;;;;;;;;;;;;;25.21;32.36;94119.16;4899730;29;7237;-37
2024/01/08 08:53:35;;;;;;;;;;;;;;;25.20;33.04;94114.94;4896726;29;7387;-37
2024/01/08 08:56:01;;;;;;;;;;;;;;;25.18;32.92;94122.97;4911432;29;7906;-37
2024/01/08 08:58:34;;;;;;;;;;;;;;;25.15;33.31;94116.47;4898565;29;9113;-37
2024/01/08 09:01:17;;;;;;;;;;;;;;;25.19;33.69;94119.69;4906492;29;8444;-37
2024/01/08 09:03:43;;;;;;;;;;;;;;;25.19;33.53;94119.69;4921998;29;7065;-37
2024/01/08 09:06:09;;;;;;;;;;;;;;;25.19;33.45;94119.69;4898737;29;7465;-37
2024/01/08 09:08:35;;;;;;;;;;;;;;;25.23;33.27;94130.41;4906053;29;7270;-37
2024/01/08 09:11:01;;;;;;;;;;;;;;;25.22;33.10;94128.94;4894570;29;8714;-37
2024/01/08 09:13:29;;;;;;;;;;;;;;;25.24;33.83;94120.91;4895883;29;9119;-37
2024/01/08 09:15:55;;;;;;;;;;;;;;;25.23;33.41;94125.66;4894442;29;9234;-37
2024/01/08 09:18:45;;;;;;;;;;;;;;;25.23;33.27;94125.66;4906241;29;7364;-58
2024/01/08 09:21:14;;;;;;;;;;;;;;;25.27;33.59;94125.41;4943920;28;7253;-59
2024/01/08 09:23:52;;;;;;;;;;;;;;;25.26;33.56;94121.88;4991250;28;7079;-59
2024/01/08 09:26:20;;;;;;;;;;;;;;;25.29;33.92;94128.38;5007027;28;7131;-60
2024/01/08 09:28:53;;;;;;;;;;;;;;;25.28;34.26;94132.38;4999618;28;7973;-59
2024/01/08 09:31:20;;;;;;;;;;;;;;;25.28;34.48;94129.63;5036686;28;8200;-59
2024/01/08 09:33:47;;;;;;;;;;;;;;;25.30;33.55;94125.09;5016582;28;7193;-60
2024/01/08 09:36:25;;;;;;;;;;;;;;;25.32;33.40;94141.84;5030135;28;7219;-60
2024/01/08 09:39:24;;;;;;;;;;;;;;;25.35;34.53;94137.31;5015926;28;8812;-59
2024/01/08 09:41:54;;;;;;;;;;;;;;;25.32;33.99;94133.59;4926763;29;6988;-59
2024/01/08 09:44:25;;;;;;;;;;;;;;;25.31;33.84;94142.38;4929157;29;7467;-59
2024/01/08 09:46:52;;;;;;;;;;;;;;;25.32;33.85;94135.59;4916899;29;8883;-59
2024/01/08 09:49:38;;;;;;;;;;;;;;;25.31;34.62;94143.13;4920355;29;9465;-59
2024/01/08 09:52:08;;;;;;;;;;;;;;;25.31;34.16;94134.09;4920359;29;8797;-59
2024/01/08 09:54:36;;;;;;;;;;;;;;;25.29;34.23;94140.09;4917621;29;7073;-58
2024/01/08 09:57:17;;;;;;;;;;;;;;;25.31;34.31;94129.34;4905630;29;7070;-59
2024/01/08 10:00:05;;;;;;;;;;;;;;;25.34;34.73;94130.31;4918858;29;9065;-60
2024/01/08 10:02:34;;;;;;;;;;;;;;;25.33;34.65;94143.34;4930906;29;7190;-60
2024/01/08 10:05:02;;;;;;;;;;;;;;;25.31;34.86;94134.88;4931623;29;9439;-60
2024/01/08 10:07:36;;;;;;;;;;;;;;;25.34;34.50;94138.56;4906596;29;7945;-59
2024/01/08 10:10:03;;;;;;;;;;;;;;;25.35;34.40;94142.81;4908748;29;7062;-59
2024/01/08 10:12:36;;;;;;;;;;;;;;;25.34;34.56;94139.31;4928399;29;7351;-59
2024/01/08 10:15:05;;;;;;;;;;;;;;;25.35;34.69;94148.34;4911365;29;8909;-59
2024/01/08 10:17:34;;;;;;;;;;;;;;;25.32;34.40;94155.59;4967516;28;7621;-59
2024/01/08 10:20:09;;;;;;;;;;;;;;;25.33;35.07;94145.34;5015016;28;9098;-59
2024/01/08 10:22:35;;;;;;;;;;;;;;;25.29;34.61;94144.88;5033739;28;9479;-59
2024/01/08 10:25:06;;;;;;;;;;;;;;;25.23;34.78;94139.41;5022336;28;8982;-60
2024/01/08 10:27:32;;;;;;;;;;;;;;;25.29;34.16;94147.66;5031741;28;7060;-59
2024/01/08 10:29:58;;;;;;;;;;;;;;;25.26;34.26;94145.91;5014997;28;9211;-48
2024/01/08 10:32:25;;;;;;;;;;;;;;;25.25;35.01;94144.44;5015074;28;9001;-49
2024/01/08 10:34:55;;;;;;;;;;;;;;;25.24;34.75;94140.19;5030987;28;9020;-49
2024/01/08 10:37:21;;;;;;;;;;;;;;;25.23;34.74;94142.19;5014859;28;7113;-48
2024/01/08 10:39:48;;;;;;;;;;;;;;;25.23;34.88;94141.41;5012047;28;8386;-53
2024/01/08 10:42:14;;;;;;;;;;;;;;;25.22;34.69;94135.19;5015075;28;6983;-52
2024/01/08 10:44:43;;;;;;;;;;;;;;;25.22;34.20;94134.44;5015016;28;6848;-50
2024/01/08 10:47:15;;;;;;;;;;;;;;;25.24;35.02;94129.91;5020103;28;8188;-49
2024/01/08 10:49:58;;;;;;;;;;;;;;;25.23;34.86;94133.16;5005075;28;7252;-47
2024/01/08 10:52:56;;;;;;;;;;;;;;;25.31;35.55;94129.34;5014872;28;9655;-50
2024/01/08 10:55:42;;;;;;;;;;;;;;;25.33;35.52;94134.34;4955086;28;9135;-48
2024/01/08 10:58:29;;;;;;;;;;;;;;;25.35;35.34;94138.06;4947146;28;7531;-52
2024/01/08 11:00:56;;;;;;;;;;;;;;;25.32;35.30;94139.09;4954345;28;7255;-49
2024/01/08 11:03:25;;;;;;;;;;;;;;;25.31;35.28;94134.09;4955247;28;7247;-50
2024/01/08 11:05:51;;;;;;;;;;;;;;;25.30;35.14;94132.59;4952532;28;9029;-50
2024/01/08 11:08:31;;;;;;;;;;;;;;;25.28;35.71;94133.13;4938056;28;9420;-48
2024/01/08 11:11:11;;;;;;;;;;;;;;;25.29;35.72;94128.38;4934453;28;7252;-51
2024/01/08 11:13:54;;;;;;;;;;;;;;;25.32;35.14;94122.56;4955359;28;7061;-47
2024/01/08 11:16:47;;;;;;;;;;;;;;;25.33;35.62;94123.31;4954920;28;8356;-50
2024/01/08 11:19:32;;;;;;;;;;;;;;;25.34;34.92;94125.56;4955072;28;7089;-49
2024/01/08 11:22:42;;;;;;;;;;;;;;;25.32;35.81;94122.56;4954968;28;7011;-47
2024/01/08 11:25:48;;;;;;;;;;;;;;;25.31;35.43;94125.84;4949567;28;7091;-48
2024/01/08 11:29:03;;;;;;;;;;;;;;;25.32;36.34;94116.31;4954005;28;7059;-53
2024/01/08 11:32:14;;;;;;;;;;;;;;;25.35;36.28;94118.06;4934504;28;7070;-51
2024/01/08 11:35:19;;;;;;;;;;;;;;;25.35;35.59;94121.56;4935844;29;7117;-51
2024/01/08 11:38:19;;;;;;;;;;;;;;;25.36;35.74;94123.03;4936653;29;8715;-47
2024/01/08 11:40:56;;;;;;;;;;;;;;;25.37;36.00;94112.78;4935383;28;7212;-42
2024/01/08 11:43:34;;;;;;;;;;;;;;;25.38;35.43;94119.78;4935827;29;6937;-41
2024/01/08 11:46:31;;;;;;;;;;;;;;;25.39;35.27;94115.75;4937486;28;9181;-41
2024/01/08 11:49:05;;;;;;;;;;;;;;;25.38;35.03;94109.50;4915527;29;9525;-39
2024/01/08 11:51:47;;;;;;;;;;;;;;;25.41;35.88;94113.22;4915377;29;9324;-40
2024/01/08 11:54:22;;;;;;;;;;;;;;;25.44;35.88;94117.75;4907660;29;7193;-40
2024/01/08 11:57:15;;;;;;;;;;;;;;;25.42;35.59;94118.25;4916740;29;9092;-40
2024/01/08 12:00:23;;;;;;;;;;;;;;;25.43;36.17;94111.47;4915385;29;9391;-40
2024/01/08 12:02:48;;;;;;;;;;;;;;;25.46;36.26;94117.97;4916570;29;7071;-39
2024/01/08 12:05:28;;;;;;;;;;;;;;;25.45;36.01;94121.25;4915715;29;9478;-41
2024/01/08 12:08:03;;;;;;;;;;;;;;;25.42;35.54;94118.25;4919743;29;7644;-41
2024/01/08 12:10:40;;;;;;;;;;;;;;;25.45;35.71;94119.22;4917506;28;9110;-40
2024/01/08 12:13:05;;;;;;;;;;;;;;;25.45;35.80;94124.00;4943410;28;8274;-39
2024/01/08 12:15:32;;;;;;;;;;;;;;;25.45;35.46;94116.47;4985779;28;9075;-40
2024/01/08 12:17:59;;;;;;;;;;;;;;;25.40;35.90;94111.75;4965708;28;9234;-41
2024/01/08 12:20:26;;;;;;;;;;;;;;;25.42;35.73;94120.28;4981422;28;7324;-40
2024/01/08 12:23:01;;;;;;;;;;;;;;;25.42;35.78;94112.00;4967939;28;8777;-41
2024/01/08 12:25:27;;;;;;;;;;;;;;;25.44;35.67;94123.25;5003228;28;7421;-40
2024/01/08 12:28:01;;;;;;;;;;;;;;;25.42;35.92;94126.50;5014544;28;9391;-40
2024/01/08 12:30:27;;;;;;;;;;;;;;;25.42;36.16;94121.00;5033696;28;8751;-39
2024/01/08 12:32:57;;;;;;;;;;;;;;;25.41;35.45;94124.25;5014914;28;9033;-40
2024/01/08 12:35:23;;;;;;;;;;;;;;;25.36;35.78;94131.28;5014441;28;9120;-41
2024/01/08 12:37:56;;;;;;;;;;;;;;;25.39;36.25;94126.75;5032176;28;7254;-40
2024/01/08 12:40:23;;;;;;;;;;;;;;;25.39;36.41;94127.53;5019358;28;7179;-40
2024/01/08 12:43:20;;;;;;;;;;;;;;;25.40;36.25;94125.53;5016999;28;9090;-41
2024/01/08 12:45:55;;;;;;;;;;;;;;;25.39;36.36;94127.53;4953917;28;7067;-40
2024/01/08 12:48:29;;;;;;;;;;;;;;;25.39;36.43;94124.75;4937459;28;7660;-59
2024/01/08 12:50:57;;;;;;;;;;;;;;;25.42;36.16;94120.28;4940051;28;9193;-59
2024/01/08 12:53:36;;;;;;;;;;;;;;;25.40;36.08;94131.03;4942146;28;9448;-59
2024/01/08 12:56:03;;;;;;;;;;;;;;;25.43;35.59;94130.00;4943001;28;9200;-59
2024/01/08 12:58:30;;;;;;;;;;;;;;;25.41;35.78;94127.75;4942039;28;7245;-58
2024/01/08 13:01:34;;;;;;;;;;;;;;;25.41;35.93;94135.25;4937885;29;7154;-59
2024/01/08 13:04:27;;;;;;;;;;;;;;;25.37;35.19;94129.28;4915278;29;7228;-59
2024/01/08 13:07:25;;;;;;;;;;;;;;;25.34;35.52;94130.31;4912634;29;8747;-58
2024/01/08 13:10:01;;;;;;;;;;;;;;;25.31;34.41;94137.63;4870367;29;7243;-59
2024/01/08 13:12:39;;;;;;;;;;;;;;;25.29;33.76;94133.88;4877114;29;9120;-58
2024/01/08 13:15:07;;;;;;;;;;;;;;;25.29;34.56;94136.63;4854728;29;7248;-59
2024/01/08 13:17:44;;;;;;;;;;;;;;;25.28;33.55;94132.38;4859129;29;9090;-58
2024/01/08 13:20:20;;;;;;;;;;;;;;;25.27;33.69;94137.13;4868363;29;7191;-59
2024/01/08 13:22:48;;;;;;;;;;;;;;;25.29;33.78;94128.38;4911600;29;9394;-59
2024/01/08 13:25:14;;;;;;;;;;;;;;;25.26;33.50;94141.16;4932260;29;7555;-59
2024/01/08 13:27:41;;;;;;;;;;;;;;;25.25;32.86;94138.94;4920355;29;7060;-58
2024/01/08 13:30:08;;;;;;;;;;;;;;;25.25;33.47;94141.69;4941168;29;6970;-58
2024/01/08 13:32:42;;;;;;;;;;;;;;;25.26;33.81;94140.41;4924078;29;7314;-59
2024/01/08 13:35:17;;;;;;;;;;;;;;;25.23;33.95;94139.41;4938475;29;7542;-58
2024/01/08 13:37:43;;;;;;;;;;;;;;;25.25;34.22;94141.69;4955655;28;9019;-59